Time;durP1;ratioP1;P1;durP2;ratioP2;P2;SDS_P1;SDS_P2;PMS_P1;PMS_P2;Temp;Humidity;BMP_temperature;BMP_pressure;BME280_temperature;BME280_humidity;BME280_pressure;Samples;Min_cycle;Max_cycle;Signal;HPM_P1;HPM_P2
2021/12/07 00:01:57;;;;;;;11.50;5.90;;;;;;;-144.19;72.66;77083.16;5015165;28;20108;-89
2021/12/07 00:04:24;;;;;;;11.40;6.90;;;;;;;-144.19;73.24;77083.16;4997460;28;20053;-89
2021/12/07 00:06:51;;;;;;;10.27;6.25;;;;;;;-144.19;72.92;77083.16;4996812;28;20506;-88
2021/12/07 00:09:18;;;;;;;8.30;6.07;;;;;;;-144.19;72.33;77075.28;5014486;28;20050;-91
2021/12/07 00:11:46;;;;;;;10.40;5.90;;;;;;;-144.19;72.14;77071.34;5012776;28;20441;-90
2021/12/07 00:14:14;;;;;;;9.73;5.70;;;;;;;-144.19;71.69;77067.41;5013756;28;20053;-91
2021/12/07 00:16:42;;;;;;;8.73;5.50;;;;;;;-144.19;71.78;77065.44;5013688;28;20057;-89
2021/12/07 00:19:10;;;;;;;8.20;5.47;;;;;;;-144.19;72.40;77073.31;4999618;28;20064;-91
2021/12/07 00:21:39;;;;;;;9.73;6.32;;;;;;;-144.19;72.28;77067.41;5017870;28;20519;-90
2021/12/07 00:24:07;;;;;;;10.30;5.97;;;;;;;-144.19;71.77;77059.53;5018222;28;20423;-88
2021/12/07 00:26:40;;;;;;;9.40;5.68;;;;;;;-144.19;71.55;77059.53;5001515;28;20112;-90
2021/12/07 00:29:09;;;;;;;8.20;5.30;;;;;;;-144.19;71.82;77061.50;5002446;28;20050;-90
2021/12/07 00:31:44;;;;;;;8.15;5.53;;;;;;;-144.19;71.95;77051.66;5017386;28;20053;-90
2021/12/07 00:34:23;;;;;;;8.38;5.43;;;;;;;-144.19;72.11;77053.63;5003983;28;20119;-89
2021/12/07 00:36:49;;;;;;;8.88;6.20;;;;;;;-144.19;71.59;77047.72;5019577;28;20056;-88
2021/12/07 00:39:19;;;;;;;7.65;5.40;;;;;;;-144.19;71.42;77035.91;5021306;28;20042;-90
2021/12/07 00:41:47;;;;;;;8.73;6.07;;;;;;;-144.19;72.09;77039.84;5019211;28;20053;-88
2021/12/07 00:44:15;;;;;;;11.32;6.38;;;;;;;-144.19;72.58;77024.09;5019757;28;20495;-90
2021/12/07 00:46:41;;;;;;;9.25;5.70;;;;;;;-144.19;72.51;77043.78;5019625;28;20504;-89
2021/12/07 00:49:08;;;;;;;8.02;5.35;;;;;;;-144.19;72.54;77043.78;5035409;28;20049;-89
2021/12/07 00:51:34;;;;;;;9.73;6.13;;;;;;;-144.19;72.72;77028.03;5038311;28;20053;-88
2021/12/07 00:54:01;;;;;;;11.07;6.70;;;;;;;-144.19;73.33;77039.84;5036203;28;20049;-89
2021/12/07 00:56:28;;;;;;;9.55;5.85;;;;;;;-144.19;74.05;77051.66;5000225;28;20069;-89
2021/12/07 00:58:55;;;;;;;8.65;5.57;;;;;;;-144.19;73.71;77047.72;5001192;28;20050;-89
2021/12/07 01:01:22;;;;;;;10.90;5.88;;;;;;;-144.19;73.98;77051.66;5001624;28;20125;-90
2021/12/07 01:03:51;;;;;;;9.60;5.45;;;;;;;-144.19;74.30;77053.63;5018328;28;20054;-87
2021/12/07 01:06:28;;;;;;;6.68;4.57;;;;;;;-144.19;74.24;77047.72;5017480;28;20141;-86
2021/12/07 01:09:10;;;;;;;8.27;5.25;;;;;;;-144.19;75.00;77059.53;4998788;28;20050;-88
2021/12/07 01:24:40;;;;;;;10.18;6.18;;;;;;;-144.19;74.76;77045.75;5015304;28;20049;-89
2021/12/07 01:25:54;;;;;;;9.32;6.35;;;;;;;-144.19;75.53;77051.66;5014814;28;20049;-87
2021/12/07 01:28:30;;;;;;;10.40;5.60;;;;;;;-144.19;75.53;77059.53;4998236;28;20076;-89
2021/12/07 01:31:08;;;;;;;11.63;7.10;;;;;;;-144.19;76.65;77069.38;5013753;28;20423;-88
2021/12/07 01:45:09;;;;;;;10.93;6.72;;;;;;;-144.19;81.34;77110.72;4996524;28;20057;-87
2021/12/07 01:52:52;;;;;;;14.00;7.28;;;;;;;-144.19;85.38;77138.28;4996371;28;20050;-87
2021/12/07 01:57:52;;;;;;;12.43;7.40;;;;;;;-144.19;86.02;77154.03;4999675;28;20141;-89
2021/12/07 02:01:00;;;;;;;13.18;8.60;;;;;;;-144.19;86.43;77144.19;5035760;28;20060;-88
2021/12/07 02:03:28;;;;;;;14.70;9.98;;;;;;;-144.19;86.19;77148.13;5035209;28;20060;-87
2021/12/07 02:05:55;;;;;;;12.77;8.80;;;;;;;-144.19;87.30;77173.72;5016597;28;20045;-87
2021/12/07 02:08:22;;;;;;;14.05;8.27;;;;;;;-144.19;87.81;77173.72;5034819;28;20051;-87
2021/12/07 02:10:52;;;;;;;14.27;9.02;;;;;;;-144.19;88.61;77185.53;5034728;28;20053;-86
2021/12/07 02:14:02;;;;;;;14.30;9.05;;;;;;;-144.19;88.98;77185.53;5036779;28;20049;-89
2021/12/07 02:16:12;;;;;;;11.20;7.85;;;;;;;-144.19;89.75;77185.53;5035186;28;20045;-88
2021/12/07 02:18:38;;;;;;;13.82;9.00;;;;;;;-144.19;90.33;77191.44;5018593;28;20056;-88
2021/12/07 02:21:16;;;;;;;13.85;8.25;;;;;;;-144.19;90.92;77189.47;5017716;28;20045;-87
2021/12/07 02:23:42;;;;;;;;;;;;;;;-144.19;90.74;77201.28;5035743;28;20053;-88
2021/12/07 02:26:09;;;;;;;14.55;8.75;;;;;;;-144.19;91.08;77193.41;5015820;28;20007;-89
2021/12/07 02:28:39;;;;;;;16.27;9.80;;;;;;;-144.19;91.87;77209.16;5019048;28;20060;-88
2021/12/07 02:31:07;;;;;;;14.63;9.73;;;;;;;-144.19;91.68;77217.03;5018623;28;20049;-89
2021/12/07 02:33:34;;;;;;;14.75;9.40;;;;;;;-144.19;91.89;77215.06;5035539;28;20053;-86
2021/12/07 02:36:02;;;;;;;14.95;9.57;;;;;;;-144.19;92.60;77220.97;5000774;28;20057;-87
2021/12/07 02:38:29;;;;;;;14.63;9.88;;;;;;;-144.19;92.51;77222.94;4998161;28;20050;-89
2021/12/07 02:40:56;;;;;;;16.80;9.88;;;;;;;-144.19;93.18;77217.03;4998421;28;20317;-90
2021/12/07 02:43:22;;;;;;;13.55;9.65;;;;;;;-144.19;93.56;77215.06;4997548;28;20056;-87
2021/12/07 02:45:49;;;;;;;15.70;10.63;;;;;;;-144.19;93.05;77209.16;4996980;28;20186;-87
2021/12/07 02:48:16;;;;;;;19.15;10.75;;;;;;;-144.19;93.16;77213.09;4998449;28;20417;-87
2021/12/07 02:50:44;;;;;;;16.98;10.77;;;;;;;-144.19;93.50;77219.00;4999849;28;20081;-88
2021/12/07 02:53:11;;;;;;;15.70;11.27;;;;;;;-144.19;93.27;77224.91;4997811;28;20077;-88
2021/12/07 02:55:38;;;;;;;;;;;;;;;-144.19;93.79;77236.72;5012644;28;20288;-88
2021/12/07 02:58:04;;;;;;;16.60;10.45;;;;;;;-144.19;94.27;77232.78;5034819;28;19920;-87
2021/12/07 03:00:41;;;;;;;17.27;10.37;;;;;;;-144.19;94.23;77244.59;5035289;28;20045;-87
2021/12/07 03:03:10;;;;;;;18.23;11.60;;;;;;;-144.19;94.42;77228.84;5027076;28;20296;-88
2021/12/07 03:05:46;;;;;;;16.80;10.77;;;;;;;-144.19;94.56;77228.84;5004211;28;20542;-87
2021/12/07 03:09:01;;;;;;;18.08;11.75;;;;;;;-144.19;94.41;77238.69;5013288;28;20056;-88
2021/12/07 03:27:54;;;;;;;18.00;11.52;;;;;;;-144.19;94.92;77240.66;5035192;28;20492;-87
2021/12/07 03:30:22;;;;;;;18.15;11.82;;;;;;;-144.19;94.53;77240.66;5035454;28;20050;-87
2021/12/07 03:32:48;;;;;;;21.23;12.02;;;;;;;-144.19;94.58;77232.78;5037593;28;20109;-86
2021/12/07 03:35:15;;;;;;;20.15;13.82;;;;;;;-144.19;94.82;77230.81;5027315;28;20484;-88
2021/12/07 03:37:42;;;;;;;21.27;12.57;;;;;;;-144.19;94.49;77232.78;5000660;28;20052;-89
2021/12/07 03:40:10;;;;;;;19.90;13.10;;;;;;;-144.19;94.48;77240.66;5000681;28;20423;-88
2021/12/07 03:42:37;;;;;;;19.17;13.25;;;;;;;-144.19;95.00;77246.56;5000194;28;20492;-87
2021/12/07 03:45:07;;;;;;;20.80;13.30;;;;;;;-144.19;95.42;77258.38;4997830;28;20046;-88
2021/12/07 03:47:33;;;;;;;21.40;13.23;;;;;;;-144.19;95.80;77276.09;5016246;28;20062;-87
2021/12/07 03:50:00;;;;;;;20.50;13.70;;;;;;;-144.19;96.25;77276.09;4998926;28;20046;-90
2021/12/07 03:52:26;;;;;;;21.53;14.50;;;;;;;-144.19;96.35;77270.19;5019691;28;20673;-88
2021/12/07 03:54:53;;;;;;;22.65;15.15;;;;;;;-144.19;96.53;77264.28;5008239;28;20049;-86
2021/12/07 03:57:19;;;;;;;25.05;15.23;;;;;;;-144.19;96.52;77264.28;5021029;28;20057;-88
2021/12/07 03:59:45;;;;;;;27.60;16.80;;;;;;;-144.19;96.60;77254.44;5020701;28;20597;-88
2021/12/07 04:02:12;;;;;;;28.93;17.57;;;;;;;-144.19;96.71;77256.41;5041778;28;20412;-89
2021/12/07 04:04:39;;;;;;;26.08;16.48;;;;;;;-144.19;96.75;77240.66;5042533;28;20095;-88
2021/12/07 04:07:05;;;;;;;30.67;17.83;;;;;;;-144.19;96.46;77268.22;5022618;28;20060;-87
2021/12/07 04:09:32;;;;;;;24.08;15.55;;;;;;;-144.19;96.45;77268.22;5020020;28;20045;-87
2021/12/07 04:11:59;;;;;;;23.63;15.50;;;;;;;-144.19;96.56;77274.13;5039441;28;20449;-87
2021/12/07 04:14:27;;;;;;;22.45;14.40;;;;;;;-144.19;96.77;77295.78;5037405;28;20057;-87
2021/12/07 04:16:54;;;;;;;;;;;;;;;-144.19;97.08;77283.97;5020622;28;20403;-87
2021/12/07 04:19:20;;;;;;;20.48;13.57;;;;;;;-144.19;97.28;77272.16;5039780;28;19944;-90
2021/12/07 04:21:50;;;;;;;18.73;12.75;;;;;;;-144.19;97.13;77274.13;5020887;28;20056;-86
2021/12/07 04:24:16;;;;;;;19.70;13.10;;;;;;;-144.19;97.36;77280.03;5037885;28;20060;-87
2021/12/07 04:26:43;;;;;;;20.03;12.70;;;;;;;-144.19;97.01;77291.84;5037405;28;20288;-87
2021/12/07 04:29:09;;;;;;;24.98;14.98;;;;;;;-144.19;97.21;77299.72;5037864;28;20063;-87
2021/12/07 04:31:36;;;;;;;20.40;13.23;;;;;;;-144.19;97.12;77303.66;5019873;28;20072;-87
2021/12/07 04:34:02;;;;;;;22.15;12.63;;;;;;;-144.19;97.28;77303.66;5038417;28;20303;-88
2021/12/07 04:36:29;;;;;;;26.33;16.37;;;;;;;-144.19;97.53;77289.88;5020115;28;20419;-89
2021/12/07 04:38:55;;;;;;;27.83;16.83;;;;;;;-144.19;97.17;77301.69;5021901;28;20387;-88
2021/12/07 04:41:22;;;;;;;25.52;15.68;;;;;;;-144.19;97.48;77307.59;5021614;28;20304;-86
2021/12/07 04:43:49;;;;;;;21.33;14.13;;;;;;;-144.19;97.61;77311.53;5038059;28;20054;-88
2021/12/07 04:46:24;;;;;;;19.13;12.55;;;;;;;-144.19;97.69;77321.38;5020684;28;20053;-87
2021/12/07 04:59:34;;;;;;;27.85;16.30;;;;;;;-144.19;97.67;77313.50;5019777;28;20050;-88
2021/12/07 05:02:01;;;;;;;24.92;17.33;;;;;;;-144.19;97.39;77317.44;5002126;28;20052;-89
2021/12/07 05:04:31;;;;;;;21.13;13.18;;;;;;;-144.19;97.79;77333.19;5003682;28;20050;-89
2021/12/07 05:07:07;;;;;;;25.80;15.23;;;;;;;-144.19;97.93;77315.47;5000823;28;20054;-87
2021/12/07 05:10:07;;;;;;;27.48;15.15;;;;;;;-144.19;97.96;77335.16;5000620;28;20500;-88
2021/12/07 05:12:40;;;;;;;29.48;17.55;;;;;;;-144.19;98.00;77339.09;5018288;28;20050;-86
2021/12/07 05:15:28;;;;;;;28.92;17.30;;;;;;;-144.19;98.45;77335.16;5001415;28;20052;-87
2021/12/07 05:39:57;;;;;;;23.25;15.10;;;;;;;-144.19;97.17;77360.75;5039776;28;20051;-90
2021/12/07 05:42:24;;;;;;;23.73;15.38;;;;;;;-144.19;97.73;77345.00;5023028;28;20426;-89
2021/12/07 05:44:52;;;;;;;25.42;15.55;;;;;;;-144.19;97.45;77358.78;5020229;28;20487;-87
2021/12/07 05:47:19;;;;;;;25.67;16.15;;;;;;;-144.19;97.75;77346.97;5020901;28;20060;-89
2021/12/07 05:49:45;;;;;;;27.23;16.50;;;;;;;-144.19;97.86;77354.84;5020909;28;20128;-88
2021/12/07 05:52:12;;;;;;;29.98;17.35;;;;;;;-144.19;97.69;77358.78;5020936;28;20140;-87
2021/12/07 05:54:38;;;;;;;21.20;13.88;;;;;;;-144.19;97.74;77390.28;5016251;28;20049;-88
2021/12/07 05:57:06;;;;;;;29.88;17.75;;;;;;;-144.19;98.10;77372.56;5002095;28;20045;-88
2021/12/07 05:59:32;;;;;;;;;;;;;;;-144.19;98.41;77376.50;5001409;28;20068;-88
2021/12/07 06:01:59;;;;;;;36.20;19.42;;;;;;;-144.19;98.36;77370.59;5019670;28;20405;-88
2021/12/07 06:04:25;;;;;;;39.88;20.95;;;;;;;-144.19;98.36;77358.78;5003639;28;20113;-90
2021/12/07 06:06:52;;;;;;;35.23;20.73;;;;;;;-144.19;98.04;77392.25;5001962;28;20468;-88
2021/12/07 06:09:18;;;;;;;32.70;19.50;;;;;;;-144.19;98.27;77378.47;5002163;28;20056;-89
2021/12/07 06:11:47;;;;;;;29.03;18.03;;;;;;;-144.19;98.13;77366.66;5001267;28;20046;-89
2021/12/07 06:14:18;;;;;;;27.15;16.40;;;;;;;-144.19;97.34;77394.22;5001060;28;20295;-87
2021/12/07 06:16:46;;;;;;;26.75;16.38;;;;;;;-144.19;97.44;77370.59;5001426;28;20081;-89
2021/12/07 06:19:14;;;;;;;41.60;22.70;;;;;;;-144.19;97.48;77354.84;5001297;28;20050;-88
2021/12/07 06:21:40;;;;;;;35.28;20.35;;;;;;;-144.19;96.86;77345.00;5002740;28;20049;-88
2021/12/07 06:24:07;;;;;;;42.45;20.63;;;;;;;-144.19;95.99;77360.75;5003141;28;20056;-87
2021/12/07 06:26:34;;;;;;;33.60;19.60;;;;;;;-144.19;95.65;77348.94;5001456;28;20058;-87
2021/12/07 06:29:00;;;;;;;36.95;20.20;;;;;;;-144.19;95.62;77352.88;5004066;28;20060;-89
2021/12/07 06:31:27;;;;;;;37.80;20.00;;;;;;;-144.19;96.28;77378.47;5004158;28;20050;-89
2021/12/07 06:33:53;;;;;;;35.33;18.58;;;;;;;-144.19;96.73;77394.22;5019686;28;20046;-88
2021/12/07 06:36:20;;;;;;;38.15;20.17;;;;;;;-144.19;97.13;77398.16;4981746;28;20221;-87
2021/12/07 06:38:47;;;;;;;45.35;22.70;;;;;;;-144.19;97.17;77392.25;4983065;28;20133;-88
2021/12/07 06:41:14;;;;;;;;;;;;;;;-144.19;97.49;77400.13;4984233;28;20042;-87
2021/12/07 06:43:40;;;;;;;42.22;21.50;;;;;;;-144.19;97.49;77398.16;4983493;28;19948;-89
2021/12/07 06:46:07;;;;;;;42.97;23.63;;;;;;;-144.19;97.76;77409.97;4983289;28;20129;-88
2021/12/07 06:48:33;;;;;;;42.92;23.23;;;;;;;-144.19;97.81;77400.13;4985496;28;20074;-89
2021/12/07 06:51:01;;;;;;;37.88;20.63;;;;;;;-144.19;97.76;77386.34;4998879;28;20050;-88
2021/12/07 06:53:30;;;;;;;37.75;21.27;;;;;;;-144.19;97.46;77406.03;5002702;28;20054;-88
2021/12/07 06:55:56;;;;;;;46.25;23.08;;;;;;;-144.19;97.16;77382.41;5003027;28;20054;-88
2021/12/07 06:58:23;;;;;;;49.50;27.40;;;;;;;-144.19;97.28;77402.09;5003637;28;20510;-89
2021/12/07 07:00:49;;;;;;;44.23;23.83;;;;;;;-144.19;97.45;77413.91;5005697;28;20049;-89
2021/12/07 07:03:16;;;;;;;47.92;24.77;;;;;;;-144.19;97.28;77402.09;5004967;28;20447;-88
2021/12/07 07:05:43;;;;;;;39.22;22.40;;;;;;;-144.19;97.34;77413.91;4998725;28;20046;-88
2021/12/07 07:08:10;;;;;;;34.17;19.73;;;;;;;-144.19;97.22;77413.91;5017719;28;20081;-87
2021/12/07 07:10:37;;;;;;;52.50;26.25;;;;;;;-144.19;97.08;77413.91;4995317;28;20041;-88
2021/12/07 07:13:03;;;;;;;39.65;22.98;;;;;;;-144.19;97.63;77413.91;4992764;28;20046;-91
2021/12/07 07:15:30;;;;;;;41.65;22.48;;;;;;;-144.19;97.84;77417.84;5025603;28;20053;-87
2021/12/07 07:17:57;;;;;;;46.20;24.73;;;;;;;-144.19;97.63;77421.78;5010700;28;20108;-88
2021/12/07 07:20:23;;;;;;;49.05;24.02;;;;;;;-144.19;97.70;77421.78;5025641;28;20109;-91
2021/12/07 07:22:50;;;;;;;43.92;22.67;;;;;;;-144.19;97.71;77429.66;4994069;28;20058;-91
2021/12/07 07:25:16;;;;;;;46.08;23.48;;;;;;;-144.19;97.87;77453.28;4993354;28;20105;-89
2021/12/07 07:27:43;;;;;;;46.78;23.33;;;;;;;-144.19;98.49;77445.41;5009735;28;20056;-88
2021/12/07 07:30:12;;;;;;;36.47;19.95;;;;;;;-144.19;98.66;77445.41;5013586;28;20056;-87
2021/12/07 07:32:39;;;;;;;36.97;20.55;;;;;;;-144.19;98.60;77437.53;5012812;28;20052;-86
2021/12/07 07:35:08;;;;;;;37.97;21.83;;;;;;;-144.19;98.67;77457.22;5021708;28;20060;-88
2021/12/07 07:37:34;;;;;;;48.17;23.88;;;;;;;-144.19;98.50;77441.47;5013722;28;20049;-87
2021/12/07 07:40:06;;;;;;;46.28;25.17;;;;;;;-144.19;98.03;77453.28;5015658;28;20415;-87
2021/12/07 07:42:34;;;;;;;46.50;26.30;;;;;;;-144.19;98.00;77437.53;5031453;28;20065;-87
2021/12/07 07:45:03;;;;;;;43.22;24.77;;;;;;;-144.19;97.73;77445.41;5032532;28;20046;-87
2021/12/07 07:47:29;;;;;;;39.50;20.58;;;;;;;-144.19;97.60;77449.34;5021253;28;20052;-88
2021/12/07 07:49:56;;;;;;;36.63;19.83;;;;;;;-144.19;97.73;77461.16;5009187;28;20129;-88
2021/12/07 07:52:22;;;;;;;36.00;19.38;;;;;;;-144.19;97.90;77465.09;5007602;28;20056;-90
2021/12/07 07:54:49;;;;;;;33.92;18.33;;;;;;;-144.19;98.26;77476.91;5009530;28;20050;-88
2021/12/07 07:57:16;;;;;;;33.05;19.08;;;;;;;-144.19;98.32;77476.91;5021698;28;20128;-87
2021/12/07 07:59:43;;;;;;;33.10;17.60;;;;;;;-144.19;98.83;77472.97;5008173;28;20057;-90
2021/12/07 08:02:10;;;;;;;32.70;18.35;;;;;;;-144.19;98.67;77476.91;5012223;28;20060;-89
2021/12/07 08:04:37;;;;;;;35.55;19.83;;;;;;;-144.19;98.79;77488.72;5009884;28;20050;-89
2021/12/07 08:07:04;;;;;;;40.30;20.42;;;;;;;-144.19;98.65;77472.97;5021082;28;20057;-89
2021/12/07 08:09:30;;;;;;;36.10;20.58;;;;;;;-144.19;98.49;77471.00;5004749;28;20591;-87
2021/12/07 08:11:57;;;;;;;46.47;22.90;;;;;;;-144.19;98.22;77461.16;5014013;28;20042;-88
2021/12/07 08:14:24;;;;;;;42.92;21.33;;;;;;;-144.19;98.09;77469.03;5003729;28;20137;-89
2021/12/07 08:16:51;;;;;;;41.22;22.35;;;;;;;-144.19;98.44;77437.53;5017169;28;20062;-87
2021/12/07 08:19:17;;;;;;;;;;;;;;;-144.19;98.28;77451.31;5010780;28;20054;-88
2021/12/07 08:21:44;;;;;;;48.67;23.88;;;;;;;-144.19;98.30;77459.19;5011459;28;19925;-89
2021/12/07 08:24:10;;;;;;;48.60;24.30;;;;;;;-144.19;98.65;77441.47;5000130;28;20060;-89
2021/12/07 08:26:37;;;;;;;43.63;24.97;;;;;;;-144.19;98.49;77461.16;5004732;28;20133;-87
2021/12/07 08:29:03;;;;;;;48.40;24.15;;;;;;;-144.19;98.69;77441.47;5037983;28;20312;-88
2021/12/07 08:31:30;;;;;;;42.38;20.60;;;;;;;-144.19;98.67;77467.06;5011593;28;20050;-88
2021/12/07 08:33:56;;;;;;;45.83;24.60;;;;;;;-144.19;98.78;77431.63;5003716;28;20076;-88
2021/12/07 08:36:23;;;;;;;57.60;29.90;;;;;;;-144.19;98.42;77433.59;5003521;28;20056;-86
2021/12/07 08:38:50;;;;;;;43.33;23.77;;;;;;;-144.19;98.38;77441.47;5010981;28;20056;-85
2021/12/07 08:41:16;;;;;;;47.25;24.38;;;;;;;-144.19;98.38;77441.47;5010731;28;20052;-88
2021/12/07 08:43:48;;;;;;;45.90;24.00;;;;;;;-144.19;98.16;77431.63;5022642;28;20137;-89
2021/12/07 08:46:16;;;;;;;44.97;23.70;;;;;;;-144.19;98.13;77443.44;5006275;28;20054;-86
2021/12/07 08:48:42;;;;;;;50.00;25.05;;;;;;;-144.19;98.36;77423.75;4993843;28;20041;-87
2021/12/07 08:51:12;;;;;;;55.97;27.88;;;;;;;-144.19;97.88;77417.84;5011024;28;20061;-88
2021/12/07 08:53:47;;;;;;;56.88;26.85;;;;;;;-144.19;97.52;77398.16;4992062;28;20052;-87
2021/12/07 09:01:55;;;;;;;41.97;21.52;;;;;;;-144.19;98.57;77427.69;5012947;28;20052;-88
2021/12/07 09:04:22;;;;;;;40.08;20.08;;;;;;;-144.19;98.77;77417.84;5022518;28;20113;-87
2021/12/07 09:06:49;;;;;;;38.50;20.52;;;;;;;-144.19;98.64;77411.94;5026356;28;20105;-87
2021/12/07 09:09:16;;;;;;;;;;;;;;;-144.19;98.67;77421.78;5010532;28;20105;-90
2021/12/07 09:11:44;;;;;;;35.00;20.10;;;;;;;-144.19;98.53;77409.97;5010386;28;19976;-89
2021/12/07 09:14:14;;;;;;;36.33;19.38;;;;;;;-144.19;98.49;77406.03;5010924;28;20060;-88
2021/12/07 09:16:42;;;;;;;37.97;19.80;;;;;;;-144.19;98.28;77409.97;5033054;28;20061;-89
2021/12/07 09:19:09;;;;;;;41.85;21.38;;;;;;;-144.19;98.30;77409.97;5045062;28;20058;-89
2021/12/07 09:21:36;;;;;;;43.97;20.73;;;;;;;-144.19;98.21;77406.03;5029125;28;20041;-89
2021/12/07 09:24:03;;;;;;;37.55;19.15;;;;;;;-144.19;97.86;77411.94;5044661;28;20053;-90
2021/12/07 09:26:30;;;;;;;40.70;19.38;;;;;;;-144.19;97.76;77409.97;5027206;28;20057;-89
2021/12/07 09:28:56;;;;;;;35.17;19.60;;;;;;;-144.19;97.58;77415.88;5028125;28;20053;-88
2021/12/07 09:31:23;;;;;;;40.50;21.55;;;;;;;-144.19;97.86;77398.16;5025259;28;20060;-88
2021/12/07 09:33:51;;;;;;;38.45;19.77;;;;;;;-144.19;97.71;77404.06;5044531;28;20053;-90
2021/12/07 09:36:18;;;;;;;41.42;22.75;;;;;;;-144.19;97.40;77384.38;5043814;28;20049;-88
2021/12/07 09:38:44;;;;;;;47.95;23.42;;;;;;;-144.19;97.65;77370.59;5025325;28;20124;-89
2021/12/07 09:41:12;;;;;;;35.03;18.75;;;;;;;-144.19;97.35;77346.97;5024837;28;20048;-88
2021/12/07 09:43:38;;;;;;;39.58;19.13;;;;;;;-144.19;97.41;77335.16;5024256;28;20054;-89
2021/12/07 09:46:07;;;;;;;42.05;19.35;;;;;;;-144.19;96.82;77335.16;5023726;28;20049;-88
2021/12/07 09:48:37;;;;;;;32.63;18.23;;;;;;;-144.19;96.54;77331.22;5024786;28;20061;-89
2021/12/07 09:51:05;;;;;;;40.30;18.85;;;;;;;-144.19;96.52;77331.22;5023060;28;20056;-88
2021/12/07 09:53:32;;;;;;;36.67;19.02;;;;;;;-144.19;96.18;77327.28;5024018;28;20067;-89
2021/12/07 09:56:00;;;;;;;35.42;18.30;;;;;;;-144.19;96.17;77307.59;5014389;28;20139;-89
2021/12/07 09:58:28;;;;;;;37.45;18.98;;;;;;;-144.19;96.27;77295.78;5009668;28;20145;-89
2021/12/07 10:00:56;;;;;;;45.85;21.02;;;;;;;-144.19;96.18;77276.09;5006589;28;20390;-88
2021/12/07 10:03:24;;;;;;;39.15;19.42;;;;;;;-144.19;96.02;77270.19;5030268;28;20070;-88
2021/12/07 10:05:52;;;;;;;38.17;19.60;;;;;;;-144.19;94.87;77254.44;5015573;28;20052;-88
2021/12/07 10:08:18;;;;;;;36.42;19.75;;;;;;;-144.19;94.16;77264.28;5025069;28;20045;-89
2021/12/07 10:10:54;;;;;;;38.95;21.17;;;;;;;-144.19;93.07;77244.59;5009783;28;20056;-88
2021/12/07 10:13:22;;;;;;;35.90;19.25;;;;;;;-144.19;91.22;77220.97;5004321;28;20132;-88
2021/12/07 10:15:50;;;;;;;38.40;19.83;;;;;;;-144.19;90.63;77146.16;5022048;28;20054;-89
2021/12/07 10:18:21;;;;;;;34.47;18.73;;;;;;;-144.19;87.13;77136.31;5022555;28;20118;-87
2021/12/07 10:21:27;;;;;;;34.08;17.88;;;;;;;-144.19;85.58;77073.31;5009057;28;20049;-90
2021/12/07 10:24:02;;;;;;;38.20;20.67;;;;;;;-144.19;83.99;77055.59;5008388;28;20060;-88
2021/12/07 10:26:31;;;;;;;34.50;16.40;;;;;;;-144.19;81.78;77106.78;5006803;28;20054;-88
2021/12/07 10:29:12;;;;;;;32.88;17.55;;;;;;;-144.19;86.26;77134.34;5022137;28;20045;-87
2021/12/07 10:31:45;;;;;;;35.13;19.52;;;;;;;-144.19;85.12;77047.72;5008575;28;20121;-86
2021/12/07 10:34:17;;;;;;;31.77;18.55;;;;;;;-144.19;82.54;77114.66;5023685;28;20050;-88
2021/12/07 10:36:47;;;;;;;37.40;19.25;;;;;;;-144.19;84.08;77089.06;5003302;28;20405;-89
2021/12/07 10:39:16;;;;;;;34.83;16.83;;;;;;;-144.19;85.31;77154.03;5022629;28;20046;-87
2021/12/07 10:41:56;;;;;;;30.30;16.13;;;;;;;-144.19;86.05;77150.09;5006278;28;20499;-88
2021/12/07 10:44:43;;;;;;;32.25;17.13;;;;;;;-144.19;87.47;77211.13;5013704;28;20443;-89
2021/12/07 10:47:14;;;;;;;27.43;15.50;;;;;;;-144.19;88.99;77230.81;5016346;28;20049;-87
2021/12/07 10:50:05;;;;;;;30.38;16.15;;;;;;;-144.19;90.22;77258.38;5021852;28;20049;-88
2021/12/07 10:52:36;;;;;;;29.10;16.27;;;;;;;-144.19;91.41;77272.16;5036647;28;20531;-86
2021/12/07 10:55:13;;;;;;;40.67;18.50;;;;;;;-144.19;91.61;77252.47;5021765;28;20513;-89
2021/12/07 10:57:50;;;;;;;37.83;19.20;;;;;;;-144.19;91.40;77224.91;5016630;28;20128;-88
2021/12/07 11:00:29;;;;;;;31.48;17.48;;;;;;;-144.19;90.10;77228.84;5002883;28;20054;-86
2021/12/07 11:03:02;;;;;;;33.17;17.27;;;;;;;-144.19;89.85;77217.03;5000639;28;20145;-86
2021/12/07 11:05:38;;;;;;;38.17;19.73;;;;;;;-144.19;90.18;77193.41;5004227;28;20057;-87
2021/12/07 11:08:07;;;;;;;32.72;18.08;;;;;;;-144.19;90.43;77213.09;5014038;28;20060;-89
2021/12/07 11:10:39;;;;;;;38.80;18.27;;;;;;;-144.19;90.74;77207.19;5038250;28;20423;-88
2021/12/07 11:13:14;;;;;;;38.85;20.35;;;;;;;-144.19;91.09;77220.97;5023749;28;20045;-89
2021/12/07 11:15:54;;;;;;;31.85;17.95;;;;;;;-144.19;91.19;77232.78;5023329;28;20049;-89
2021/12/07 11:18:25;;;;;;;31.20;18.33;;;;;;;-144.19;90.60;77207.19;5041281;28;20077;-88
2021/12/07 11:20:54;;;;;;;39.53;21.60;;;;;;;-144.19;91.72;77224.91;5022504;28;20259;-88
2021/12/07 11:23:27;;;;;;;30.40;16.75;;;;;;;-144.19;92.10;77205.22;5019988;28;20049;-88
2021/12/07 11:31:24;;;;;;;30.35;16.13;;;;;;;-144.19;90.31;77159.94;5038645;28;20077;-88
2021/12/07 11:34:03;;;;;;;34.00;17.48;;;;;;;-144.19;89.94;77138.28;5022352;28;20080;-88
2021/12/07 11:36:34;;;;;;;35.03;17.63;;;;;;;-144.19;88.75;77110.72;5010991;28;20054;-90
2021/12/07 11:39:03;;;;;;;36.03;18.10;;;;;;;-144.19;87.84;77091.03;5025499;28;20042;-87
2021/12/07 11:41:32;;;;;;;29.98;16.27;;;;;;;-144.19;86.98;77077.25;5019415;28;20496;-87
2021/12/07 11:44:08;;;;;;;45.45;20.95;;;;;;;-144.19;85.94;77063.47;5017188;28;20049;-86
2021/12/07 11:46:37;;;;;;;37.00;16.95;;;;;;;-144.19;84.71;77063.47;5039141;28;20147;-90
2021/12/07 11:49:10;;;;;;;33.30;17.33;;;;;;;-144.19;84.22;77045.75;5022102;28;20056;-88
2021/12/07 11:51:39;;;;;;;30.23;15.23;;;;;;;-144.19;85.55;77134.34;5019750;28;20077;-87
2021/12/07 11:54:06;;;;;;;27.95;12.45;;;;;;;-144.19;88.20;77173.72;5035515;28;20049;-86
2021/12/07 11:56:33;;;;;;;22.80;13.82;;;;;;;-144.19;88.70;77179.63;4999296;28;20572;-88
2021/12/07 11:59:03;;;;;;;29.20;13.88;;;;;;;-144.19;89.65;77165.84;4999219;28;20058;-88
2021/12/07 12:01:42;;;;;;;29.33;15.80;;;;;;;-144.19;90.49;77161.91;5017475;28;20077;-89
2021/12/07 12:04:09;;;;;;;28.05;16.88;;;;;;;-144.19;90.10;77152.06;5000853;28;20690;-88
2021/12/07 12:06:38;;;;;;;60.17;35.67;;;;;;;-144.19;90.28;77150.09;5000534;28;20046;-87
2021/12/07 12:09:09;;;;;;;64.50;34.33;;;;;;;-144.19;90.16;77146.16;5018799;28;20046;-88
2021/12/07 12:11:40;;;;;;;28.67;14.63;;;;;;;-144.19;90.00;77134.34;4999784;28;20054;-90
2021/12/07 12:14:20;;;;;;;23.55;13.93;;;;;;;-144.19;90.21;77130.41;5001273;28;20137;-86
2021/12/07 12:17:05;;;;;;;21.15;11.43;;;;;;;-144.19;90.37;77144.19;5003158;28;20060;-88
2021/12/07 12:20:01;;;;;;;20.63;10.27;;;;;;;-144.19;90.27;77154.03;5006601;28;20058;-90
2021/12/07 12:22:38;;;;;;;24.27;13.35;;;;;;;-144.19;90.65;77144.19;5005521;28;20042;-91
2021/12/07 12:25:08;;;;;;;32.22;16.25;;;;;;;-144.19;90.28;77116.63;5002204;28;20060;-88
2021/12/07 12:27:40;;;;;;;21.73;12.48;;;;;;;-144.19;90.05;77116.63;5007202;28;20129;-89
2021/12/07 12:30:19;;;;;;;18.77;10.95;;;;;;;-144.19;89.12;77150.09;5005361;28;20148;-88
2021/12/07 12:32:54;;;;;;;23.42;12.52;;;;;;;-144.19;88.82;77120.56;5006359;28;20050;-89
2021/12/07 12:35:30;;;;;;;24.98;12.02;;;;;;;-144.19;88.70;77154.03;5004910;28;20061;-87
2021/12/07 12:37:57;;;;;;;41.80;15.80;;;;;;;-144.19;89.15;77114.66;5003447;28;20077;-88
2021/12/07 12:40:27;;;;;;;;;;;;;;;-144.19;88.54;77122.53;5022459;28;20057;-88
2021/12/07 12:42:55;;;;;;;22.88;12.85;;;;;;;-144.19;88.74;77165.84;5005927;28;19921;-89
2021/12/07 12:45:30;;;;;;;19.77;13.10;;;;;;;-144.19;89.43;77144.19;5002403;28;20514;-88
2021/12/07 12:48:27;;;;;;;31.38;14.43;;;;;;;-144.19;89.13;77150.09;5000525;28;20168;-88
2021/12/07 12:50:54;;;;;;;27.52;14.98;;;;;;;-144.19;89.07;77146.16;4998512;28;20064;-89